sensor_id;sensor_type;location;lat;lon;timestamp;temperature;humidity
212;DHT22;16228;48.800;9.002;2023-04-19T00:02:02;10.20;96.90
212;DHT22;16228;48.800;9.002;2023-04-19T00:04:29;10.20;96.90
212;DHT22;16228;48.800;9.002;2023-04-19T00:06:57;10.20;96.90
212;DHT22;16228;48.800;9.002;2023-04-19T00:09:24;10.10;96.90
212;DHT22;16228;48.800;9.002;2023-04-19T00:11:51;10.10;96.90
212;DHT22;16228;48.800;9.002;2023-04-19T00:14:18;10.10;96.90
212;DHT22;16228;48.800;9.002;2023-04-19T00:16:45;10.10;96.90
212;DHT22;16228;48.800;9.002;2023-04-19T00:19:12;10.10;96.90
212;DHT22;16228;48.800;9.002;2023-04-19T00:21:39;10.10;96.90
212;DHT22;16228;48.800;9.002;2023-04-19T00:24:07;10.10;96.90
212;DHT22;16228;48.800;9.002;2023-04-19T00:26:34;10.10;96.90
212;DHT22;16228;48.800;9.002;2023-04-19T00:29:01;10.10;96.90
212;DHT22;16228;48.800;9.002;2023-04-19T00:31:28;10.10;96.90
212;DHT22;16228;48.800;9.002;2023-04-19T00:33:55;10.10;96.90
212;DHT22;16228;48.800;9.002;2023-04-19T00:36:22;10.10;96.90
212;DHT22;16228;48.800;9.002;2023-04-19T00:38:49;10.10;96.90
212;DHT22;16228;48.800;9.002;2023-04-19T00:41:18;10.10;96.90
212;DHT22;16228;48.800;9.002;2023-04-19T00:43:45;10.10;96.90
212;DHT22;16228;48.800;9.002;2023-04-19T00:46:13;10.00;96.90
212;DHT22;16228;48.800;9.002;2023-04-19T00:48:40;10.00;96.90
212;DHT22;16228;48.800;9.002;2023-04-19T00:51:08;10.00;96.90
212;DHT22;16228;48.800;9.002;2023-04-19T00:53:35;10.00;96.90
212;DHT22;16228;48.800;9.002;2023-04-19T00:56:03;10.00;96.90
212;DHT22;16228;48.800;9.002;2023-04-19T00:58:32;9.90;96.90
212;DHT22;16228;48.800;9.002;2023-04-19T01:00:59;9.90;96.90
212;DHT22;16228;48.800;9.002;2023-04-19T01:03:26;9.90;96.90
212;DHT22;16228;48.800;9.002;2023-04-19T01:05:54;9.90;96.90
212;DHT22;16228;48.800;9.002;2023-04-19T01:08:21;9.90;96.90
212;DHT22;16228;48.800;9.002;2023-04-19T01:10:48;9.80;96.90
212;DHT22;16228;48.800;9.002;2023-04-19T01:13:15;9.80;96.90
212;DHT22;16228;48.800;9.002;2023-04-19T01:15:44;9.80;96.90
212;DHT22;16228;48.800;9.002;2023-04-19T01:18:11;9.70;96.90
212;DHT22;16228;48.800;9.002;2023-04-19T01:20:38;9.70;96.90
212;DHT22;16228;48.800;9.002;2023-04-19T01:23:06;9.70;96.90
212;DHT22;16228;48.800;9.002;2023-04-19T01:25:36;9.80;96.90
212;DHT22;16228;48.800;9.002;2023-04-19T01:28:03;9.80;96.90
212;DHT22;16228;48.800;9.002;2023-04-19T01:30:31;9.80;96.90
212;DHT22;16228;48.800;9.002;2023-04-19T01:32:58;9.70;96.90
212;DHT22;16228;48.800;9.002;2023-04-19T01:35:25;9.70;96.90
212;DHT22;16228;48.800;9.002;2023-04-19T01:37:52;9.70;96.90
212;DHT22;16228;48.800;9.002;2023-04-19T01:40:23;9.70;96.90
212;DHT22;16228;48.800;9.002;2023-04-19T01:42:50;9.70;96.90
212;DHT22;16228;48.800;9.002;2023-04-19T01:45:17;9.70;96.90
212;DHT22;16228;48.800;9.002;2023-04-19T01:47:45;9.70;96.90
212;DHT22;16228;48.800;9.002;2023-04-19T01:50:11;9.70;96.90
212;DHT22;16228;48.800;9.002;2023-04-19T01:52:38;9.70;96.90
212;DHT22;16228;48.800;9.002;2023-04-19T01:55:06;9.70;96.90
212;DHT22;16228;48.800;9.002;2023-04-19T01:57:34;9.70;96.90
212;DHT22;16228;48.800;9.002;2023-04-19T02:00:01;9.70;96.90
212;DHT22;16228;48.800;9.002;2023-04-19T02:02:28;9.60;96.90
212;DHT22;16228;48.800;9.002;2023-04-19T02:04:56;9.70;96.90
212;DHT22;16228;48.800;9.002;2023-04-19T02:07:23;9.70;96.90
212;DHT22;16228;48.800;9.002;2023-04-19T02:09:50;9.70;96.90
212;DHT22;16228;48.800;9.002;2023-04-19T02:12:17;9.70;96.90
212;DHT22;16228;48.800;9.002;2023-04-19T02:14:45;9.70;96.90
212;DHT22;16228;48.800;9.002;2023-04-19T02:17:12;9.80;96.90
212;DHT22;16228;48.800;9.002;2023-04-19T02:19:39;9.70;96.90
212;DHT22;16228;48.800;9.002;2023-04-19T02:22:06;9.80;96.90
212;DHT22;16228;48.800;9.002;2023-04-19T02:24:33;9.80;96.90
212;DHT22;16228;48.800;9.002;2023-04-19T02:27:00;9.80;96.90
212;DHT22;16228;48.800;9.002;2023-04-19T02:29:27;9.80;96.90
212;DHT22;16228;48.800;9.002;2023-04-19T02:31:55;9.80;96.90
212;DHT22;16228;48.800;9.002;2023-04-19T02:34:22;9.80;96.90
212;DHT22;16228;48.800;9.002;2023-04-19T02:36:49;9.80;96.90
212;DHT22;16228;48.800;9.002;2023-04-19T02:39:16;9.70;96.90
212;DHT22;16228;48.800;9.002;2023-04-19T02:41:43;9.70;96.90
212;DHT22;16228;48.800;9.002;2023-04-19T02:44:10;9.70;96.90
212;DHT22;16228;48.800;9.002;2023-04-19T02:46:37;9.60;96.90
212;DHT22;16228;48.800;9.002;2023-04-19T02:49:06;9.60;96.90
212;DHT22;16228;48.800;9.002;2023-04-19T02:51:33;9.50;96.90
212;DHT22;16228;48.800;9.002;2023-04-19T02:54:00;9.40;96.90
212;DHT22;16228;48.800;9.002;2023-04-19T02:56:27;9.40;96.90
212;DHT22;16228;48.800;9.002;2023-04-19T02:58:54;9.40;96.90
212;DHT22;16228;48.800;9.002;2023-04-19T03:01:21;9.40;96.90
212;DHT22;16228;48.800;9.002;2023-04-19T03:03:48;9.40;96.90
212;DHT22;16228;48.800;9.002;2023-04-19T03:06:17;9.40;96.90
212;DHT22;16228;48.800;9.002;2023-04-19T03:08:44;9.40;96.90
212;DHT22;16228;48.800;9.002;2023-04-19T03:11:11;9.50;96.90
212;DHT22;16228;48.800;9.002;2023-04-19T03:13:38;9.40;96.90
212;DHT22;16228;48.800;9.002;2023-04-19T03:16:06;9.40;96.90
212;DHT22;16228;48.800;9.002;2023-04-19T03:18:33;9.40;96.90
212;DHT22;16228;48.800;9.002;2023-04-19T03:21:01;9.40;96.90
212;DHT22;16228;48.800;9.002;2023-04-19T03:23:30;9.50;96.90
212;DHT22;16228;48.800;9.002;2023-04-19T03:25:56;9.50;96.90
212;DHT22;16228;48.800;9.002;2023-04-19T03:28:23;9.50;96.90
212;DHT22;16228;48.800;9.002;2023-04-19T03:30:50;9.50;96.90
212;DHT22;16228;48.800;9.002;2023-04-19T03:33:17;9.50;96.90
212;DHT22;16228;48.800;9.002;2023-04-19T03:35:44;9.50;96.90
212;DHT22;16228;48.800;9.002;2023-04-19T03:38:11;9.50;96.90
212;DHT22;16228;48.800;9.002;2023-04-19T03:40:39;9.40;96.90
212;DHT22;16228;48.800;9.002;2023-04-19T03:43:06;9.40;96.90
212;DHT22;16228;48.800;9.002;2023-04-19T03:45:33;9.40;96.90
212;DHT22;16228;48.800;9.002;2023-04-19T03:48:00;9.40;96.90
212;DHT22;16228;48.800;9.002;2023-04-19T03:50:27;9.40;96.90
212;DHT22;16228;48.800;9.002;2023-04-19T03:52:54;9.40;96.90
212;DHT22;16228;48.800;9.002;2023-04-19T03:55:21;9.40;96.90
212;DHT22;16228;48.800;9.002;2023-04-19T03:57:49;9.40;96.90
212;DHT22;16228;48.800;9.002;2023-04-19T04:00:17;9.40;96.90
212;DHT22;16228;48.800;9.002;2023-04-19T04:02:44;9.40;96.90
212;DHT22;16228;48.800;9.002;2023-04-19T04:05:11;9.40;96.90
212;DHT22;16228;48.800;9.002;2023-04-19T04:07:38;9.40;96.90
212;DHT22;16228;48.800;9.002;2023-04-19T04:10:06;9.30;96.90
212;DHT22;16228;48.800;9.002;2023-04-19T04:12:33;9.30;96.90
212;DHT22;16228;48.800;9.002;2023-04-19T04:15:02;9.40;96.90
212;DHT22;16228;48.800;9.002;2023-04-19T04:17:29;9.40;96.90
212;DHT22;16228;48.800;9.002;2023-04-19T04:19:56;9.40;96.90
212;DHT22;16228;48.800;9.002;2023-04-19T04:22:23;9.40;96.90
212;DHT22;16228;48.800;9.002;2023-04-19T04:24:50;9.40;96.90
212;DHT22;16228;48.800;9.002;2023-04-19T04:27:18;9.30;96.90
212;DHT22;16228;48.800;9.002;2023-04-19T04:29:46;9.20;96.90
212;DHT22;16228;48.800;9.002;2023-04-19T04:32:15;9.20;96.90
212;DHT22;16228;48.800;9.002;2023-04-19T04:34:48;9.20;96.90
212;DHT22;16228;48.800;9.002;2023-04-19T04:37:15;9.10;96.90
212;DHT22;16228;48.800;9.002;2023-04-19T04:39:42;9.20;96.90
212;DHT22;16228;48.800;9.002;2023-04-19T04:42:10;9.20;96.90
212;DHT22;16228;48.800;9.002;2023-04-19T04:44:39;9.20;96.90
212;DHT22;16228;48.800;9.002;2023-04-19T04:47:06;9.20;96.90
212;DHT22;16228;48.800;9.002;2023-04-19T04:49:34;9.20;96.90
212;DHT22;16228;48.800;9.002;2023-04-19T04:52:02;9.20;96.90
212;DHT22;16228;48.800;9.002;2023-04-19T04:54:29;9.20;96.90
212;DHT22;16228;48.800;9.002;2023-04-19T04:56:57;9.20;96.90
212;DHT22;16228;48.800;9.002;2023-04-19T04:59:24;9.10;96.90
212;DHT22;16228;48.800;9.002;2023-04-19T05:01:51;9.20;96.90
212;DHT22;16228;48.800;9.002;2023-04-19T05:04:18;9.30;96.90
212;DHT22;16228;48.800;9.002;2023-04-19T05:06:46;9.30;96.90
212;DHT22;16228;48.800;9.002;2023-04-19T05:09:13;9.30;96.90
212;DHT22;16228;48.800;9.002;2023-04-19T05:11:40;9.30;96.90
212;DHT22;16228;48.800;9.002;2023-04-19T05:14:07;9.30;96.90
212;DHT22;16228;48.800;9.002;2023-04-19T05:16:34;9.30;96.90
212;DHT22;16228;48.800;9.002;2023-04-19T05:19:01;9.20;96.90
212;DHT22;16228;48.800;9.002;2023-04-19T05:21:28;9.10;96.90
212;DHT22;16228;48.800;9.002;2023-04-19T05:23:56;9.10;96.90
212;DHT22;16228;48.800;9.002;2023-04-19T05:26:23;9.10;96.90
212;DHT22;16228;48.800;9.002;2023-04-19T05:28:50;9.00;96.90
212;DHT22;16228;48.800;9.002;2023-04-19T05:31:17;9.00;96.90
212;DHT22;16228;48.800;9.002;2023-04-19T05:33:45;9.00;96.90
212;DHT22;16228;48.800;9.002;2023-04-19T05:36:12;9.00;96.90
212;DHT22;16228;48.800;9.002;2023-04-19T05:38:39;9.00;96.90
212;DHT22;16228;48.800;9.002;2023-04-19T05:41:07;9.10;96.90
212;DHT22;16228;48.800;9.002;2023-04-19T05:43:34;9.10;96.90
212;DHT22;16228;48.800;9.002;2023-04-19T05:46:01;9.20;96.90
212;DHT22;16228;48.800;9.002;2023-04-19T05:48:28;9.20;96.90
212;DHT22;16228;48.800;9.002;2023-04-19T05:50:55;9.30;96.90
212;DHT22;16228;48.800;9.002;2023-04-19T05:53:23;9.30;96.90
212;DHT22;16228;48.800;9.002;2023-04-19T05:55:50;9.40;96.90
212;DHT22;16228;48.800;9.002;2023-04-19T05:58:19;9.50;96.90
212;DHT22;16228;48.800;9.002;2023-04-19T06:00:46;9.60;96.90
212;DHT22;16228;48.800;9.002;2023-04-19T06:03:13;9.70;96.90
212;DHT22;16228;48.800;9.002;2023-04-19T06:05:40;9.70;96.90
212;DHT22;16228;48.800;9.002;2023-04-19T06:08:07;9.70;96.90
212;DHT22;16228;48.800;9.002;2023-04-19T06:10:36;9.80;96.90
212;DHT22;16228;48.800;9.002;2023-04-19T06:13:03;9.80;96.90
212;DHT22;16228;48.800;9.002;2023-04-19T06:15:32;9.90;96.90
212;DHT22;16228;48.800;9.002;2023-04-19T06:17:59;9.90;96.90
212;DHT22;16228;48.800;9.002;2023-04-19T06:20:26;9.90;96.90
212;DHT22;16228;48.800;9.002;2023-04-19T06:22:52;10.00;96.90
212;DHT22;16228;48.800;9.002;2023-04-19T06:25:19;10.00;96.90
212;DHT22;16228;48.800;9.002;2023-04-19T06:27:46;10.00;96.90
212;DHT22;16228;48.800;9.002;2023-04-19T06:30:13;10.00;96.90
212;DHT22;16228;48.800;9.002;2023-04-19T06:32:42;10.00;96.90
212;DHT22;16228;48.800;9.002;2023-04-19T06:35:10;10.00;96.90
212;DHT22;16228;48.800;9.002;2023-04-19T06:37:37;10.10;96.90
212;DHT22;16228;48.800;9.002;2023-04-19T06:40:05;10.10;96.90
212;DHT22;16228;48.800;9.002;2023-04-19T06:42:33;10.20;96.90
212;DHT22;16228;48.800;9.002;2023-04-19T06:45:00;10.40;96.90
212;DHT22;16228;48.800;9.002;2023-04-19T06:47:28;10.50;96.90
212;DHT22;16228;48.800;9.002;2023-04-19T06:49:56;10.70;96.90
212;DHT22;16228;48.800;9.002;2023-04-19T06:52:23;10.70;96.90
212;DHT22;16228;48.800;9.002;2023-04-19T06:54:51;10.70;96.90
212;DHT22;16228;48.800;9.002;2023-04-19T06:57:18;10.60;96.90
212;DHT22;16228;48.800;9.002;2023-04-19T06:59:45;10.50;96.90
212;DHT22;16228;48.800;9.002;2023-04-19T07:02:12;10.50;96.90
212;DHT22;16228;48.800;9.002;2023-04-19T07:04:39;10.50;96.90
212;DHT22;16228;48.800;9.002;2023-04-19T07:07:07;10.60;96.90
212;DHT22;16228;48.800;9.002;2023-04-19T07:09:34;10.70;96.90
212;DHT22;16228;48.800;9.002;2023-04-19T07:12:01;10.70;96.90
212;DHT22;16228;48.800;9.002;2023-04-19T07:14:28;10.80;96.90
212;DHT22;16228;48.800;9.002;2023-04-19T07:16:55;10.80;96.90
212;DHT22;16228;48.800;9.002;2023-04-19T07:19:22;10.90;96.90
212;DHT22;16228;48.800;9.002;2023-04-19T07:21:49;11.00;96.90
212;DHT22;16228;48.800;9.002;2023-04-19T07:24:18;11.10;96.90
212;DHT22;16228;48.800;9.002;2023-04-19T07:26:45;11.20;96.90
212;DHT22;16228;48.800;9.002;2023-04-19T07:29:12;11.30;96.90
212;DHT22;16228;48.800;9.002;2023-04-19T07:31:39;11.50;96.90
212;DHT22;16228;48.800;9.002;2023-04-19T07:34:07;11.70;96.90
212;DHT22;16228;48.800;9.002;2023-04-19T07:36:34;11.90;96.90
212;DHT22;16228;48.800;9.002;2023-04-19T07:39:02;12.00;96.90
212;DHT22;16228;48.800;9.002;2023-04-19T07:41:32;12.20;96.90
212;DHT22;16228;48.800;9.002;2023-04-19T07:43:59;12.30;96.90
212;DHT22;16228;48.800;9.002;2023-04-19T07:46:26;12.30;96.90
212;DHT22;16228;48.800;9.002;2023-04-19T07:48:53;12.30;96.90
212;DHT22;16228;48.800;9.002;2023-04-19T07:51:20;12.40;96.90
212;DHT22;16228;48.800;9.002;2023-04-19T07:53:49;12.60;96.90
212;DHT22;16228;48.800;9.002;2023-04-19T07:56:16;12.60;96.90
212;DHT22;16228;48.800;9.002;2023-04-19T07:58:45;12.70;96.90
212;DHT22;16228;48.800;9.002;2023-04-19T08:01:12;13.00;96.90
212;DHT22;16228;48.800;9.002;2023-04-19T08:03:40;13.30;96.90
212;DHT22;16228;48.800;9.002;2023-04-19T08:06:07;13.40;96.90
212;DHT22;16228;48.800;9.002;2023-04-19T08:08:34;13.70;96.90
212;DHT22;16228;48.800;9.002;2023-04-19T08:11:02;14.30;96.90
212;DHT22;16228;48.800;9.002;2023-04-19T08:13:29;14.70;96.90
212;DHT22;16228;48.800;9.002;2023-04-19T08:15:57;14.90;96.90
212;DHT22;16228;48.800;9.002;2023-04-19T08:18:25;14.90;96.90
212;DHT22;16228;48.800;9.002;2023-04-19T08:20:52;15.30;96.90
212;DHT22;16228;48.800;9.002;2023-04-19T08:23:19;16.70;96.90
212;DHT22;16228;48.800;9.002;2023-04-19T08:25:46;18.20;94.60
212;DHT22;16228;48.800;9.002;2023-04-19T08:28:13;17.80;93.00
212;DHT22;16228;48.800;9.002;2023-04-19T08:30:40;17.30;94.00
212;DHT22;16228;48.800;9.002;2023-04-19T08:33:08;16.70;96.60
212;DHT22;16228;48.800;9.002;2023-04-19T08:35:36;16.60;96.90
212;DHT22;16228;48.800;9.002;2023-04-19T08:38:03;16.80;96.90
212;DHT22;16228;48.800;9.002;2023-04-19T08:40:30;16.80;96.90
212;DHT22;16228;48.800;9.002;2023-04-19T08:42:58;16.80;96.00
212;DHT22;16228;48.800;9.002;2023-04-19T08:45:26;17.30;95.60
212;DHT22;16228;48.800;9.002;2023-04-19T08:47:55;17.60;94.00
212;DHT22;16228;48.800;9.002;2023-04-19T08:50:24;17.90;91.00
212;DHT22;16228;48.800;9.002;2023-04-19T08:52:52;17.60;91.30
212;DHT22;16228;48.800;9.002;2023-04-19T08:55:19;17.20;94.00
212;DHT22;16228;48.800;9.002;2023-04-19T08:57:46;16.70;93.60
212;DHT22;16228;48.800;9.002;2023-04-19T09:00:14;16.40;95.30
212;DHT22;16228;48.800;9.002;2023-04-19T09:02:45;16.30;95.70
212;DHT22;16228;48.800;9.002;2023-04-19T09:05:14;16.40;96.90
212;DHT22;16228;48.800;9.002;2023-04-19T09:07:44;17.00;96.80
212;DHT22;16228;48.800;9.002;2023-04-19T09:10:13;17.70;94.30
212;DHT22;16228;48.800;9.002;2023-04-19T09:12:42;17.90;92.40
212;DHT22;16228;48.800;9.002;2023-04-19T09:15:10;17.50;92.00
212;DHT22;16228;48.800;9.002;2023-04-19T09:17:38;17.00;93.90
212;DHT22;16228;48.800;9.002;2023-04-19T09:20:06;16.30;96.90
212;DHT22;16228;48.800;9.002;2023-04-19T09:22:34;16.10;96.90
212;DHT22;16228;48.800;9.002;2023-04-19T09:25:03;15.90;96.90
212;DHT22;16228;48.800;9.002;2023-04-19T09:27:32;15.80;96.90
212;DHT22;16228;48.800;9.002;2023-04-19T09:30:02;15.50;96.90
212;DHT22;16228;48.800;9.002;2023-04-19T09:32:45;15.30;96.90
212;DHT22;16228;48.800;9.002;2023-04-19T09:35:12;15.30;96.90
212;DHT22;16228;48.800;9.002;2023-04-19T09:37:39;15.40;96.90
212;DHT22;16228;48.800;9.002;2023-04-19T09:40:23;15.40;96.90
212;DHT22;16228;48.800;9.002;2023-04-19T09:42:51;15.40;96.90
212;DHT22;16228;48.800;9.002;2023-04-19T09:45:18;15.30;96.90
212;DHT22;16228;48.800;9.002;2023-04-19T09:47:59;15.10;96.90
212;DHT22;16228;48.800;9.002;2023-04-19T09:50:27;14.80;96.90
212;DHT22;16228;48.800;9.002;2023-04-19T09:52:54;15.00;96.90
212;DHT22;16228;48.800;9.002;2023-04-19T09:55:23;15.00;96.90
212;DHT22;16228;48.800;9.002;2023-04-19T09:57:51;15.10;96.90
212;DHT22;16228;48.800;9.002;2023-04-19T10:00:19;15.10;96.90
212;DHT22;16228;48.800;9.002;2023-04-19T10:02:50;15.00;96.90
212;DHT22;16228;48.800;9.002;2023-04-19T10:05:23;14.70;96.90
212;DHT22;16228;48.800;9.002;2023-04-19T10:07:51;14.60;96.90
212;DHT22;16228;48.800;9.002;2023-04-19T10:10:20;14.60;96.90
212;DHT22;16228;48.800;9.002;2023-04-19T10:12:52;14.50;96.90
212;DHT22;16228;48.800;9.002;2023-04-19T10:15:20;14.30;96.90
212;DHT22;16228;48.800;9.002;2023-04-19T10:17:48;14.20;96.90
212;DHT22;16228;48.800;9.002;2023-04-19T10:20:21;14.30;96.90
212;DHT22;16228;48.800;9.002;2023-04-19T10:22:49;14.20;96.90
212;DHT22;16228;48.800;9.002;2023-04-19T10:25:17;14.10;96.90
212;DHT22;16228;48.800;9.002;2023-04-19T10:27:44;14.10;96.90
212;DHT22;16228;48.800;9.002;2023-04-19T10:30:18;14.10;96.90
212;DHT22;16228;48.800;9.002;2023-04-19T10:32:51;14.50;96.90
212;DHT22;16228;48.800;9.002;2023-04-19T10:35:19;15.70;96.90
212;DHT22;16228;48.800;9.002;2023-04-19T10:38:04;17.50;96.90
212;DHT22;16228;48.800;9.002;2023-04-19T10:40:54;19.10;90.70
212;DHT22;16228;48.800;9.002;2023-04-19T10:43:22;20.60;87.50
212;DHT22;16228;48.800;9.002;2023-04-19T10:45:51;20.80;85.10
212;DHT22;16228;48.800;9.002;2023-04-19T10:48:32;20.20;85.00
212;DHT22;16228;48.800;9.002;2023-04-19T10:51:00;19.00;86.70
212;DHT22;16228;48.800;9.002;2023-04-19T10:53:46;18.00;89.60
212;DHT22;16228;48.800;9.002;2023-04-19T10:56:14;16.90;92.40
212;DHT22;16228;48.800;9.002;2023-04-19T10:59:13;16.20;94.20
212;DHT22;16228;48.800;9.002;2023-04-19T11:01:52;15.70;95.30
212;DHT22;16228;48.800;9.002;2023-04-19T11:07:04;14.80;96.90
212;DHT22;16228;48.800;9.002;2023-04-19T11:09:33;14.50;96.90
212;DHT22;16228;48.800;9.002;2023-04-19T11:12:01;14.50;96.90
212;DHT22;16228;48.800;9.002;2023-04-19T11:14:31;14.40;96.90
212;DHT22;16228;48.800;9.002;2023-04-19T11:17:03;14.20;96.90
212;DHT22;16228;48.800;9.002;2023-04-19T11:19:30;14.10;96.90
212;DHT22;16228;48.800;9.002;2023-04-19T11:21:58;14.10;96.90
212;DHT22;16228;48.800;9.002;2023-04-19T11:24:25;13.70;96.90
212;DHT22;16228;48.800;9.002;2023-04-19T11:26:55;13.40;96.90
212;DHT22;16228;48.800;9.002;2023-04-19T11:29:23;13.30;96.90
212;DHT22;16228;48.800;9.002;2023-04-19T11:31:50;13.20;96.90
212;DHT22;16228;48.800;9.002;2023-04-19T11:34:21;13.10;96.90
212;DHT22;16228;48.800;9.002;2023-04-19T11:36:49;13.00;96.90
212;DHT22;16228;48.800;9.002;2023-04-19T11:39:16;12.90;96.90
212;DHT22;16228;48.800;9.002;2023-04-19T11:41:43;12.90;96.90
212;DHT22;16228;48.800;9.002;2023-04-19T11:44:15;12.80;96.90
212;DHT22;16228;48.800;9.002;2023-04-19T11:46:58;12.60;96.90
212;DHT22;16228;48.800;9.002;2023-04-19T11:49:27;12.50;96.90
212;DHT22;16228;48.800;9.002;2023-04-19T11:51:59;12.30;96.90
212;DHT22;16228;48.800;9.002;2023-04-19T11:54:26;12.20;96.90
212;DHT22;16228;48.800;9.002;2023-04-19T11:57:01;12.20;96.90
212;DHT22;16228;48.800;9.002;2023-04-19T11:59:33;12.30;96.90
212;DHT22;16228;48.800;9.002;2023-04-19T12:02:07;12.30;96.90
212;DHT22;16228;48.800;9.002;2023-04-19T12:04:36;12.20;96.90
212;DHT22;16228;48.800;9.002;2023-04-19T12:07:04;12.10;96.90
212;DHT22;16228;48.800;9.002;2023-04-19T12:09:33;12.00;96.90
212;DHT22;16228;48.800;9.002;2023-04-19T12:12:01;11.80;96.90
212;DHT22;16228;48.800;9.002;2023-04-19T12:14:28;11.70;96.90
212;DHT22;16228;48.800;9.002;2023-04-19T12:17:07;11.70;96.90
212;DHT22;16228;48.800;9.002;2023-04-19T12:19:36;11.70;96.90
212;DHT22;16228;48.800;9.002;2023-04-19T12:22:14;11.60;96.90
212;DHT22;16228;48.800;9.002;2023-04-19T12:24:41;11.50;96.90
212;DHT22;16228;48.800;9.002;2023-04-19T12:27:09;11.50;96.90
212;DHT22;16228;48.800;9.002;2023-04-19T12:29:37;11.50;96.90
212;DHT22;16228;48.800;9.002;2023-04-19T12:32:05;11.40;96.90
212;DHT22;16228;48.800;9.002;2023-04-19T12:34:32;11.30;96.90
212;DHT22;16228;48.800;9.002;2023-04-19T12:37:00;11.20;96.90
212;DHT22;16228;48.800;9.002;2023-04-19T12:39:28;11.20;96.90
212;DHT22;16228;48.800;9.002;2023-04-19T12:41:55;11.10;96.90
212;DHT22;16228;48.800;9.002;2023-04-19T12:44:22;11.00;96.90
212;DHT22;16228;48.800;9.002;2023-04-19T12:46:49;10.90;96.90
212;DHT22;16228;48.800;9.002;2023-04-19T12:49:17;10.80;96.90
212;DHT22;16228;48.800;9.002;2023-04-19T12:51:44;10.70;96.90
212;DHT22;16228;48.800;9.002;2023-04-19T12:54:14;10.70;96.90
212;DHT22;16228;48.800;9.002;2023-04-19T12:56:41;10.50;96.90
212;DHT22;16228;48.800;9.002;2023-04-19T12:59:08;10.50;96.90
212;DHT22;16228;48.800;9.002;2023-04-19T13:01:36;10.50;96.90
212;DHT22;16228;48.800;9.002;2023-04-19T13:04:03;10.40;96.90
212;DHT22;16228;48.800;9.002;2023-04-19T13:06:30;10.50;96.90
212;DHT22;16228;48.800;9.002;2023-04-19T13:08:57;10.50;96.90
212;DHT22;16228;48.800;9.002;2023-04-19T13:11:25;10.40;96.90
212;DHT22;16228;48.800;9.002;2023-04-19T13:13:52;10.40;96.90
212;DHT22;16228;48.800;9.002;2023-04-19T13:16:19;10.40;96.90
212;DHT22;16228;48.800;9.002;2023-04-19T13:18:47;10.40;96.90
212;DHT22;16228;48.800;9.002;2023-04-19T13:21:14;10.40;96.90
212;DHT22;16228;48.800;9.002;2023-04-19T13:23:42;10.30;96.90
212;DHT22;16228;48.800;9.002;2023-04-19T13:26:09;10.30;96.90
212;DHT22;16228;48.800;9.002;2023-04-19T13:28:40;10.40;96.90
212;DHT22;16228;48.800;9.002;2023-04-19T13:31:07;10.40;96.90
212;DHT22;16228;48.800;9.002;2023-04-19T13:33:34;10.50;96.90
212;DHT22;16228;48.800;9.002;2023-04-19T13:36:02;10.50;96.90
212;DHT22;16228;48.800;9.002;2023-04-19T13:38:29;10.60;96.90
212;DHT22;16228;48.800;9.002;2023-04-19T13:40:56;10.60;96.90
212;DHT22;16228;48.800;9.002;2023-04-19T13:43:23;10.60;96.90
212;DHT22;16228;48.800;9.002;2023-04-19T13:45:51;10.70;96.90
212;DHT22;16228;48.800;9.002;2023-04-19T13:48:18;10.80;96.90
212;DHT22;16228;48.800;9.002;2023-04-19T13:50:45;10.90;96.90
212;DHT22;16228;48.800;9.002;2023-04-19T13:53:12;10.90;96.90
212;DHT22;16228;48.800;9.002;2023-04-19T13:55:39;10.90;96.90
212;DHT22;16228;48.800;9.002;2023-04-19T13:58:06;11.00;96.90
212;DHT22;16228;48.800;9.002;2023-04-19T14:00:33;11.00;96.90
212;DHT22;16228;48.800;9.002;2023-04-19T14:03:01;11.10;96.90
212;DHT22;16228;48.800;9.002;2023-04-19T14:05:28;11.20;96.90
212;DHT22;16228;48.800;9.002;2023-04-19T14:07:56;11.10;96.90
212;DHT22;16228;48.800;9.002;2023-04-19T14:10:23;11.20;96.90
212;DHT22;16228;48.800;9.002;2023-04-19T14:12:50;11.30;96.90
212;DHT22;16228;48.800;9.002;2023-04-19T14:15:17;11.40;96.90
212;DHT22;16228;48.800;9.002;2023-04-19T14:17:45;11.50;96.90
212;DHT22;16228;48.800;9.002;2023-04-19T14:20:13;11.40;96.90
212;DHT22;16228;48.800;9.002;2023-04-19T14:22:41;11.40;96.90
212;DHT22;16228;48.800;9.002;2023-04-19T14:25:09;11.50;96.90
212;DHT22;16228;48.800;9.002;2023-04-19T14:27:37;11.70;96.90
212;DHT22;16228;48.800;9.002;2023-04-19T14:30:05;11.70;96.90
212;DHT22;16228;48.800;9.002;2023-04-19T14:32:32;11.70;96.90
212;DHT22;16228;48.800;9.002;2023-04-19T14:34:59;11.80;96.90
212;DHT22;16228;48.800;9.002;2023-04-19T14:37:28;11.90;96.90
212;DHT22;16228;48.800;9.002;2023-04-19T14:39:55;12.10;96.90
212;DHT22;16228;48.800;9.002;2023-04-19T14:42:22;12.10;96.90
212;DHT22;16228;48.800;9.002;2023-04-19T14:44:50;12.00;96.90
212;DHT22;16228;48.800;9.002;2023-04-19T14:47:17;12.20;96.90
212;DHT22;16228;48.800;9.002;2023-04-19T14:49:44;12.40;96.90
212;DHT22;16228;48.800;9.002;2023-04-19T14:52:11;12.50;96.90
212;DHT22;16228;48.800;9.002;2023-04-19T14:54:40;12.60;96.90
212;DHT22;16228;48.800;9.002;2023-04-19T14:57:06;12.60;96.90
212;DHT22;16228;48.800;9.002;2023-04-19T14:59:33;12.60;96.90
212;DHT22;16228;48.800;9.002;2023-04-19T15:02:00;12.70;96.90
212;DHT22;16228;48.800;9.002;2023-04-19T15:04:27;12.70;96.90
212;DHT22;16228;48.800;9.002;2023-04-19T15:06:54;12.70;96.90
212;DHT22;16228;48.800;9.002;2023-04-19T15:09:21;12.70;96.90
212;DHT22;16228;48.800;9.002;2023-04-19T15:11:50;12.70;96.90
212;DHT22;16228;48.800;9.002;2023-04-19T15:14:17;12.70;96.90
212;DHT22;16228;48.800;9.002;2023-04-19T15:16:45;12.30;96.90
212;DHT22;16228;48.800;9.002;2023-04-19T15:19:12;12.20;96.90
212;DHT22;16228;48.800;9.002;2023-04-19T15:21:39;12.40;96.90
212;DHT22;16228;48.800;9.002;2023-04-19T15:24:06;12.50;96.90
212;DHT22;16228;48.800;9.002;2023-04-19T15:26:34;12.50;96.90
212;DHT22;16228;48.800;9.002;2023-04-19T15:29:02;12.50;96.90
212;DHT22;16228;48.800;9.002;2023-04-19T15:31:30;12.60;96.90
212;DHT22;16228;48.800;9.002;2023-04-19T15:34:00;12.80;96.90
212;DHT22;16228;48.800;9.002;2023-04-19T15:36:27;12.90;96.90
212;DHT22;16228;48.800;9.002;2023-04-19T15:38:54;13.10;96.90
212;DHT22;16228;48.800;9.002;2023-04-19T15:41:22;13.20;96.90
212;DHT22;16228;48.800;9.002;2023-04-19T15:43:49;13.30;96.90
212;DHT22;16228;48.800;9.002;2023-04-19T15:46:17;13.10;96.90
212;DHT22;16228;48.800;9.002;2023-04-19T15:48:44;13.10;96.90
212;DHT22;16228;48.800;9.002;2023-04-19T15:51:13;12.90;96.90
212;DHT22;16228;48.800;9.002;2023-04-19T15:53:40;12.70;96.90
212;DHT22;16228;48.800;9.002;2023-04-19T15:56:08;12.70;96.90
212;DHT22;16228;48.800;9.002;2023-04-19T15:58:35;12.50;96.90
212;DHT22;16228;48.800;9.002;2023-04-19T16:01:03;12.40;96.90
212;DHT22;16228;48.800;9.002;2023-04-19T16:03:34;12.30;96.90
212;DHT22;16228;48.800;9.002;2023-04-19T16:06:01;12.30;96.90
212;DHT22;16228;48.800;9.002;2023-04-19T16:08:28;12.50;96.90
212;DHT22;16228;48.800;9.002;2023-04-19T16:10:56;12.60;96.90
212;DHT22;16228;48.800;9.002;2023-04-19T16:13:23;12.60;96.90
212;DHT22;16228;48.800;9.002;2023-04-19T16:15:50;12.70;96.90